Ardoch, North Dakota
Current Conditions -  °F | °C
As of 8:35 PM on Saturday 25 Oct 2014 (Local Time) from KGAF Reporting Station
Clear Clear  
Wind Chill:   Ceiling: Unl
Heat Index:   Visibility: 10mi
Dew Point: -2°   Wind: 7mph
Humidity: 53%   Direction: 240°WSW
Pressure: 30"   Gusts: NA
Location:  48.21°N, 97.34°W
Report Text: KGAF 260135Z AUTO 24006KT 10SM CLR 07/M02 A3000 RMK AO2
Loading
Personal Weather Stations






























Interactive Weather Map
Tropical Storm Tracking
New forecast layout! Learn more

10-Day Weather Forecast

Advertisements
Track Severe Weather on mobile